createdAt,value
2018-04-16T00:00:04.402Z,20.80
2018-04-16T00:01:06.877Z,20.88
2018-04-16T00:02:09.457Z,19.67
2018-04-16T00:03:11.940Z,20.83
2018-04-16T00:04:14.422Z,20.10
2018-04-16T00:05:16.932Z,20.92
2018-04-16T00:06:19.450Z,24.17
2018-04-16T00:07:22.670Z,24.65
2018-04-16T00:08:25.180Z,22.02
2018-04-16T00:09:27.660Z,20.60
2018-04-16T00:10:30.123Z,19.48
2018-04-16T00:11:32.740Z,20.92
2018-04-16T00:12:35.245Z,21.35
2018-04-16T00:13:37.762Z,20.58
2018-04-16T00:14:40.248Z,20.80
2018-04-16T00:15:42.725Z,20.40
2018-04-16T00:16:45.206Z,20.60
2018-04-16T00:17:48.472Z,26.90
2018-04-16T00:18:50.973Z,21.33
2018-04-16T00:19:54.512Z,21.02
2018-04-16T00:20:56.986Z,26.95
2018-04-16T00:21:59.473Z,27.87
2018-04-16T00:23:01.936Z,22.05
2018-04-16T00:24:04.441Z,19.55
2018-04-16T00:25:06.917Z,21.30
2018-04-16T00:26:09.401Z,21.20
2018-04-16T00:27:11.888Z,20.58
2018-04-16T00:28:14.782Z,20.90
2018-04-16T00:29:17.281Z,21.65
2018-04-16T00:30:20.521Z,21.58
2018-04-16T00:31:22.998Z,20.83
2018-04-16T00:32:31.286Z,21.95
2018-04-16T00:33:40.321Z,21.00
2018-04-16T00:34:48.633Z,21.45
2018-04-16T00:35:56.775Z,21.52
2018-04-16T00:37:05.791Z,20.12
2018-04-16T00:38:14.096Z,21.80
2018-04-16T00:39:22.812Z,20.48
2018-04-16T00:40:31.048Z,19.95
2018-04-16T00:41:39.125Z,21.20
2018-04-16T00:42:47.474Z,20.98
2018-04-16T00:43:55.770Z,20.52
2018-04-16T00:45:03.903Z,22.52
2018-04-16T00:46:12.021Z,21.42
2018-04-16T00:49:00.215Z,21.27
2018-04-16T00:50:08.440Z,22.05
2018-04-16T00:51:18.338Z,20.27
2018-04-16T00:52:26.617Z,20.55
2018-04-16T00:53:55.719Z,20.95
2018-04-16T00:55:03.910Z,19.33
2018-04-16T00:56:12.054Z,20.42
2018-04-16T00:57:20.216Z,21.05
2018-04-16T00:58:28.634Z,21.15
2018-04-16T00:59:36.757Z,21.95
2018-04-16T01:00:45.566Z,20.70
2018-04-16T01:02:08.957Z,21.40
2018-04-16T01:03:17.789Z,21.40
2018-04-16T01:04:26.867Z,21.20
2018-04-16T01:05:35.845Z,21.95
2018-04-16T01:06:44.902Z,21.08
2018-04-16T01:07:53.175Z,22.45
2018-04-16T01:09:02.220Z,20.40
2018-04-16T01:10:10.405Z,21.12
2018-04-16T01:11:19.419Z,21.92
2018-04-16T01:12:27.561Z,21.33
2018-04-16T01:13:35.885Z,20.75
2018-04-16T01:14:44.099Z,20.45
2018-04-16T01:15:52.373Z,21.00
2018-04-16T01:17:00.645Z,20.70
2018-04-16T01:18:08.882Z,21.60
2018-04-16T01:19:17.168Z,21.20
2018-04-16T01:20:26.133Z,21.60
2018-04-16T01:21:35.105Z,21.48
2018-04-16T01:22:43.358Z,20.40
2018-04-16T01:23:51.627Z,20.05
2018-04-16T01:26:34.588Z,21.05
2018-04-16T01:27:42.809Z,22.00
2018-04-16T01:28:51.909Z,22.15
2018-04-16T01:30:00.203Z,21.58
2018-04-16T01:31:08.363Z,22.20
2018-04-16T01:32:16.567Z,22.20
2018-04-16T01:33:24.773Z,22.27
2018-04-16T01:34:48.000Z,22.60
2018-04-16T01:36:09.036Z,20.95
2018-04-16T01:37:17.126Z,22.08
2018-04-16T01:38:25.325Z,22.42
2018-04-16T01:39:33.605Z,23.60
2018-04-16T01:40:42.486Z,21.25
2018-04-16T01:41:51.455Z,21.40
2018-04-16T01:43:15.454Z,22.65
2018-04-16T01:44:23.524Z,23.35
2018-04-16T01:45:32.516Z,22.65
2018-04-16T01:46:40.877Z,23.02
2018-04-16T01:48:03.065Z,22.23
2018-04-16T01:49:11.102Z,22.42
2018-04-16T01:50:19.426Z,22.62
2018-04-16T01:51:29.224Z,22.20
2018-04-16T01:52:37.477Z,22.58
2018-04-16T01:53:45.754Z,23.62
2018-04-16T01:54:54.783Z,22.95
2018-04-16T01:56:03.750Z,21.77
2018-04-16T01:57:11.981Z,22.02
2018-04-16T01:58:20.274Z,22.90
2018-04-16T01:59:28.556Z,22.55
2018-04-16T02:00:36.732Z,23.95
2018-04-16T02:01:45.597Z,22.70
2018-04-16T02:02:54.455Z,22.92
2018-04-16T02:04:02.687Z,21.42
2018-04-16T02:05:10.965Z,22.33
2018-04-16T02:06:20.053Z,22.55
2018-04-16T02:07:29.047Z,23.40
2018-04-16T02:08:37.239Z,21.92
2018-04-16T02:09:45.938Z,22.33
2018-04-16T02:10:55.005Z,22.37
2018-04-16T02:12:03.277Z,22.58
2018-04-16T02:13:12.369Z,21.58
2018-04-16T02:14:20.564Z,23.12
2018-04-16T02:15:28.629Z,23.00
2018-04-16T02:16:36.809Z,23.35
2018-04-16T02:19:20.276Z,23.40
2018-04-16T02:20:28.468Z,22.92
2018-04-16T02:21:36.775Z,22.45
2018-04-16T02:22:45.004Z,23.20
2018-04-16T02:23:53.268Z,23.25
2018-04-16T02:25:02.334Z,22.13
2018-04-16T02:26:10.572Z,21.77
2018-04-16T02:27:33.890Z,22.87
2018-04-16T02:28:42.868Z,22.05
2018-04-16T02:29:51.867Z,23.48
2018-04-16T02:31:00.086Z,23.83
2018-04-16T02:32:08.373Z,23.50
2018-04-16T02:33:16.621Z,24.15
2018-04-16T02:34:25.503Z,22.85
2018-04-16T02:35:33.763Z,23.10
2018-04-16T02:36:42.001Z,23.20
2018-04-16T02:37:50.956Z,22.98
2018-04-16T02:38:59.414Z,22.58
2018-04-16T02:40:07.588Z,23.58
2018-04-16T02:41:16.668Z,23.90
2018-04-16T02:42:25.523Z,23.20
2018-04-16T02:43:33.761Z,24.00
2018-04-16T02:44:41.960Z,23.35
2018-04-16T02:46:00.113Z,23.73
2018-04-16T02:47:08.217Z,22.92
2018-04-16T02:48:30.369Z,23.92
2018-04-16T02:49:38.536Z,25.37
2018-04-16T02:50:47.554Z,24.05
2018-04-16T02:51:55.863Z,24.55
2018-04-16T02:53:03.923Z,24.17
2018-04-16T02:54:12.010Z,22.85
2018-04-16T02:55:20.446Z,24.30
2018-04-16T02:56:28.656Z,24.45
2018-04-16T02:57:37.518Z,24.98
2018-04-16T02:58:45.626Z,24.15
2018-04-16T02:59:53.758Z,24.58
2018-04-16T03:01:01.821Z,23.98
2018-04-16T03:02:09.961Z,23.12
2018-04-16T03:03:18.908Z,24.45
2018-04-16T03:04:27.166Z,25.42
2018-04-16T03:05:35.426Z,23.70
2018-04-16T03:06:44.325Z,25.50
2018-04-16T03:07:52.508Z,24.45
2018-04-16T03:09:00.751Z,24.42
2018-04-16T03:10:08.908Z,23.52
2018-04-16T03:11:17.119Z,23.80
2018-04-16T03:12:26.176Z,24.42
2018-04-16T03:13:34.445Z,24.05
2018-04-16T03:14:43.309Z,25.08
2018-04-16T03:15:51.973Z,23.73
2018-04-16T03:17:00.041Z,23.98
2018-04-16T03:18:09.017Z,25.37
2018-04-16T03:19:18.058Z,25.62
2018-04-16T03:20:26.252Z,24.37
2018-04-16T03:21:35.198Z,25.55
2018-04-16T03:22:43.861Z,25.08
2018-04-16T03:23:52.020Z,24.27
2018-04-16T03:25:00.273Z,25.20
2018-04-16T03:26:08.527Z,23.45
2018-04-16T03:27:16.729Z,23.95
2018-04-16T03:28:24.972Z,24.27
2018-04-16T03:29:34.506Z,23.50
2018-04-16T03:30:42.732Z,23.92
2018-04-16T03:31:50.825Z,23.30
2018-04-16T03:32:59.135Z,23.60
2018-04-16T03:34:07.237Z,24.02
2018-04-16T03:35:15.351Z,23.00
2018-04-16T03:36:23.425Z,24.15
2018-04-16T03:37:31.609Z,23.50
2018-04-16T03:40:29.129Z,24.80
2018-04-16T03:41:37.689Z,24.87
2018-04-16T03:42:45.926Z,23.20
2018-04-16T03:43:54.173Z,22.90
2018-04-16T03:45:02.391Z,24.08
2018-04-16T03:46:10.609Z,23.62
2018-04-16T03:47:19.587Z,24.02
2018-04-16T03:48:27.637Z,24.63
2018-04-16T03:49:36.120Z,23.45
2018-04-16T03:50:44.242Z,24.85
2018-04-16T03:51:52.338Z,24.45
2018-04-16T03:53:13.682Z,22.52
2018-04-16T03:54:16.134Z,24.08
2018-04-16T03:55:38.313Z,23.55
2018-04-16T03:56:41.554Z,23.87
2018-04-16T03:57:44.790Z,24.40
2018-04-16T03:58:48.051Z,23.50
2018-04-16T03:59:50.517Z,26.02
2018-04-16T04:00:53.007Z,23.98
2018-04-16T04:01:55.468Z,24.10
2018-04-16T04:02:57.922Z,25.85
2018-04-16T04:04:00.441Z,24.27
2018-04-16T04:05:03.017Z,24.27
2018-04-16T04:06:05.523Z,24.87
2018-04-16T04:07:08.769Z,23.58
2018-04-16T04:08:12.005Z,24.23
2018-04-16T04:09:15.275Z,25.17
2018-04-16T04:10:17.745Z,25.85
2018-04-16T04:11:20.229Z,42.13
2018-04-16T04:12:22.737Z,58.72
2018-04-16T04:13:25.223Z,29.52
2018-04-16T04:14:27.713Z,32.10
2018-04-16T04:15:30.192Z,28.60
2018-04-16T04:16:33.452Z,25.60
2018-04-16T04:17:35.928Z,25.45
2018-04-16T04:18:38.402Z,34.92
2018-04-16T04:19:40.922Z,45.42
2018-04-16T04:20:44.140Z,25.55
2018-04-16T04:21:46.648Z,25.27
2018-04-16T04:23:01.016Z,25.12
2018-04-16T04:24:15.586Z,25.90
2018-04-16T04:25:30.754Z,23.65
2018-04-16T04:26:45.191Z,24.58
2018-04-16T04:27:59.747Z,36.03
2018-04-16T04:30:39.375Z,25.27
2018-04-16T04:31:41.841Z,27.00
2018-04-16T04:32:44.322Z,25.37
2018-04-16T04:33:46.993Z,28.65
2018-04-16T04:34:50.240Z,42.50
2018-04-16T04:35:52.715Z,28.60
2018-04-16T04:36:55.203Z,40.60
2018-04-16T04:37:58.457Z,33.15
2018-04-16T04:39:02.185Z,26.00
2018-04-16T04:40:04.686Z,26.25
2018-04-16T04:41:07.140Z,26.73
2018-04-16T04:42:09.614Z,25.37
2018-04-16T04:43:12.084Z,26.77
2018-04-16T04:44:15.360Z,29.55
2018-04-16T04:45:17.866Z,27.65
2018-04-16T04:46:21.105Z,26.35
2018-04-16T04:47:24.338Z,31.85
2018-04-16T04:48:26.852Z,35.50
2018-04-16T04:49:29.333Z,27.70
2018-04-16T04:50:32.555Z,27.60
2018-04-16T04:51:35.016Z,26.67
2018-04-16T04:52:37.490Z,27.30
2018-04-16T04:53:40.744Z,26.55
2018-04-16T04:54:43.250Z,25.95
2018-04-16T04:55:45.714Z,25.90
2018-04-16T04:56:48.205Z,26.52
2018-04-16T04:57:51.462Z,26.05
2018-04-16T04:58:54.702Z,26.42
2018-04-16T04:59:57.950Z,27.87
2018-04-16T05:01:00.414Z,30.73
2018-04-16T05:02:02.910Z,28.02
2018-04-16T05:03:05.471Z,26.02
2018-04-16T05:04:07.942Z,25.85
2018-04-16T05:05:11.167Z,26.67
2018-04-16T05:06:14.405Z,27.35
2018-04-16T05:07:16.885Z,27.60
2018-04-16T05:08:19.413Z,26.77
2018-04-16T05:09:21.891Z,26.52
2018-04-16T05:10:25.121Z,26.98
2018-04-16T05:11:27.603Z,25.58
2018-04-16T05:12:30.113Z,27.08
2018-04-16T05:13:32.670Z,27.50
2018-04-16T05:14:35.161Z,35.40
2018-04-16T05:15:37.635Z,29.80
2018-04-16T05:16:40.131Z,26.73
2018-04-16T05:17:42.733Z,26.58
2018-04-16T05:18:45.214Z,26.52
2018-04-16T05:19:47.683Z,25.55
2018-04-16T05:20:50.227Z,26.75
2018-04-16T05:21:52.708Z,31.33
2018-04-16T05:22:55.265Z,34.22
2018-04-16T05:23:57.914Z,28.50
2018-04-16T05:25:00.415Z,34.28
2018-04-16T05:26:02.893Z,29.50
2018-04-16T05:27:05.359Z,26.62
2018-04-16T05:28:09.372Z,27.50
2018-04-16T05:29:11.856Z,28.10
2018-04-16T05:30:14.327Z,28.85
2018-04-16T05:31:16.825Z,27.33
2018-04-16T05:32:19.309Z,36.45
2018-04-16T05:33:22.568Z,31.73
2018-04-16T05:34:25.057Z,28.23
2018-04-16T05:35:28.305Z,27.40
2018-04-16T05:36:30.788Z,26.73
2018-04-16T05:37:33.289Z,29.58
2018-04-16T05:38:35.765Z,26.90
2018-04-16T05:39:38.231Z,26.77
2018-04-16T05:40:41.455Z,26.85
2018-04-16T05:41:44.706Z,33.20
2018-04-16T05:42:47.967Z,27.90
2018-04-16T05:43:50.433Z,29.65
2018-04-16T05:44:52.923Z,29.10
2018-04-16T05:45:55.417Z,30.67
2018-04-16T05:46:58.629Z,31.27
2018-04-16T05:48:01.102Z,28.58
2018-04-16T05:49:03.623Z,27.52
2018-04-16T05:50:06.856Z,28.60
2018-04-16T05:51:10.129Z,27.75
2018-04-16T05:52:12.635Z,27.55
2018-04-16T05:53:15.166Z,29.35
2018-04-16T05:54:17.647Z,30.55
2018-04-16T05:55:20.112Z,28.35
2018-04-16T05:56:22.613Z,29.12
2018-04-16T05:57:25.896Z,29.98
2018-04-16T05:58:28.385Z,30.48
2018-04-16T05:59:31.624Z,27.75
2018-04-16T06:00:34.096Z,31.05
2018-04-16T06:01:36.606Z,31.83
2018-04-16T06:02:39.062Z,30.15
2018-04-16T06:03:41.521Z,32.42
2018-04-16T06:04:43.991Z,31.40
2018-04-16T06:05:46.466Z,33.25
2018-04-16T06:06:48.949Z,31.60
2018-04-16T06:07:51.437Z,35.40
2018-04-16T06:08:54.672Z,32.40
2018-04-16T06:09:57.910Z,33.85
2018-04-16T06:11:01.148Z,31.58
2018-04-16T06:12:03.616Z,30.95
2018-04-16T06:13:06.134Z,31.55
2018-04-16T06:14:08.606Z,31.55
2018-04-16T06:15:11.097Z,36.70
2018-04-16T06:16:13.569Z,39.28
2018-04-16T06:17:16.071Z,63.15
2018-04-16T06:18:18.590Z,34.97
2018-04-16T06:19:21.055Z,42.40
2018-04-16T06:20:24.301Z,36.03
2018-04-16T06:21:27.546Z,44.75
2018-04-16T06:22:30.781Z,55.20
2018-04-16T06:23:34.143Z,45.03
2018-04-16T06:24:37.371Z,47.10
2018-04-16T06:25:40.609Z,41.03
2018-04-16T06:26:43.850Z,46.90
2018-04-16T06:27:47.096Z,41.40
2018-04-16T06:28:50.357Z,114.70
2018-04-16T06:29:52.884Z,42.17
2018-04-16T06:30:55.363Z,38.83
2018-04-16T06:31:57.856Z,35.80
2018-04-16T06:33:00.354Z,62.60
2018-04-16T06:34:02.828Z,101.93
2018-04-16T06:35:05.356Z,37.75
2018-04-16T06:36:07.835Z,33.97
2018-04-16T06:37:10.337Z,101.32
2018-04-16T06:38:13.586Z,37.80
2018-04-16T06:39:16.840Z,71.68
2018-04-16T06:40:19.329Z,32.25
2018-04-16T06:41:21.793Z,34.95
2018-04-16T06:42:24.315Z,76.35
2018-04-16T06:43:27.562Z,45.95
2018-04-16T06:44:30.090Z,54.97
2018-04-16T06:45:33.413Z,46.30
2018-04-16T06:46:36.670Z,55.08
2018-04-16T06:47:39.897Z,43.70
2018-04-16T06:48:43.137Z,93.93
2018-04-16T06:49:46.376Z,44.47
2018-04-16T06:50:49.626Z,31.02
2018-04-16T06:51:53.244Z,66.78
2018-04-16T06:52:55.733Z,72.70
2018-04-16T06:53:58.395Z,100.20
2018-04-16T06:55:00.857Z,61.05
2018-04-16T06:56:04.096Z,38.47
2018-04-16T06:57:07.346Z,30.48
2018-04-16T06:58:10.611Z,31.58
2018-04-16T06:59:13.342Z,30.37
2018-04-16T07:00:15.865Z,30.50
2018-04-16T07:01:18.369Z,30.83
2018-04-16T07:02:21.639Z,30.85
2018-04-16T07:03:24.124Z,30.95
2018-04-16T07:04:26.625Z,31.60
2018-04-16T07:05:29.094Z,30.25
2018-04-16T07:06:32.322Z,28.75
2018-04-16T07:07:35.593Z,30.75
2018-04-16T07:08:38.367Z,28.95
2018-04-16T07:09:40.839Z,28.87
2018-04-16T07:10:43.365Z,29.15
2018-04-16T07:11:46.613Z,31.83
2018-04-16T07:12:49.137Z,30.88
2018-04-16T07:13:51.610Z,29.50
2018-04-16T07:14:54.489Z,30.95
2018-04-16T07:15:57.035Z,29.90
2018-04-16T07:16:59.488Z,31.37
2018-04-16T07:18:01.979Z,32.25
2018-04-16T07:19:04.481Z,31.00
2018-04-16T07:20:07.709Z,32.28
2018-04-16T07:21:10.629Z,30.20
2018-04-16T07:22:13.093Z,31.50
2018-04-16T07:23:15.669Z,33.22
2018-04-16T07:24:18.157Z,30.60
2018-04-16T07:25:20.628Z,30.60
2018-04-16T07:26:23.199Z,31.67
2018-04-16T07:27:25.735Z,32.58
2018-04-16T07:28:28.251Z,32.65
2018-04-16T07:29:30.783Z,33.13
2018-04-16T07:30:33.246Z,31.70
2018-04-16T07:31:36.467Z,33.28
2018-04-16T07:32:38.980Z,30.50
2018-04-16T07:33:41.472Z,33.50
2018-04-16T07:34:44.709Z,33.53
2018-04-16T07:35:47.946Z,34.47
2018-04-16T07:36:50.423Z,34.38
2018-04-16T07:37:52.920Z,34.15
2018-04-16T07:38:55.397Z,33.50
2018-04-16T07:39:57.870Z,33.97
2018-04-16T07:41:00.334Z,36.13
2018-04-16T07:42:02.927Z,34.83
2018-04-16T07:43:05.405Z,35.42
2018-04-16T07:44:07.864Z,36.55
2018-04-16T07:45:11.147Z,34.58
2018-04-16T07:46:13.616Z,37.65
2018-04-16T07:47:16.111Z,36.85
2018-04-16T07:48:18.594Z,37.08
2018-04-16T07:49:21.178Z,39.35
2018-04-16T07:50:23.655Z,38.00
2018-04-16T07:51:26.169Z,37.92
2018-04-16T07:52:28.705Z,39.30
2018-04-16T07:53:31.332Z,36.85
2018-04-16T07:54:33.858Z,37.70
2018-04-16T07:55:36.323Z,37.67
2018-04-16T07:56:38.787Z,37.13
2018-04-16T07:57:42.148Z,38.92
2018-04-16T07:58:44.630Z,37.22
2018-04-16T07:59:47.107Z,37.85
2018-04-16T08:00:49.576Z,37.90
2018-04-16T08:01:52.063Z,37.72
2018-04-16T08:02:54.558Z,37.10
2018-04-16T08:03:57.797Z,38.13
2018-04-16T08:05:01.283Z,37.67
2018-04-16T08:06:04.512Z,37.75
2018-04-16T08:07:06.992Z,38.95
2018-04-16T08:08:09.476Z,37.17
2018-04-16T08:09:11.947Z,39.72
2018-04-16T08:10:14.452Z,38.75
2018-04-16T08:11:16.929Z,38.90
2018-04-16T08:12:19.406Z,38.63
2018-04-16T08:13:21.869Z,39.30
2018-04-16T08:14:25.437Z,39.05
2018-04-16T08:15:27.936Z,39.05
2018-04-16T08:16:31.175Z,37.40
2018-04-16T08:17:34.425Z,39.03
2018-04-16T08:18:37.662Z,38.65
2018-04-16T08:19:40.897Z,37.28
2018-04-16T08:20:44.136Z,40.25
2018-04-16T08:21:46.604Z,39.53
2018-04-16T08:22:49.119Z,36.72
2018-04-16T08:23:51.608Z,38.78
2018-04-16T08:24:54.093Z,36.50
2018-04-16T08:25:56.571Z,36.15
2018-04-16T08:26:59.082Z,33.15
2018-04-16T08:28:01.535Z,36.17
2018-04-16T08:29:04.012Z,34.25
2018-04-16T08:30:06.472Z,35.75
2018-04-16T08:31:09.708Z,35.10
2018-04-16T08:32:12.952Z,35.40
2018-04-16T08:33:16.284Z,35.70
2018-04-16T08:34:18.706Z,34.80
2018-04-16T08:35:21.198Z,32.00
2018-04-16T08:36:23.663Z,31.73
2018-04-16T08:37:26.434Z,33.22
2018-04-16T08:38:28.945Z,34.67
2018-04-16T08:39:31.404Z,33.80
2018-04-16T08:40:33.871Z,34.30
2018-04-16T08:41:37.149Z,32.58
2018-04-16T08:42:40.234Z,35.75
2018-04-16T08:43:43.326Z,33.83
2018-04-16T08:44:45.859Z,34.80
2018-04-16T08:45:48.349Z,34.92
2018-04-16T08:46:51.583Z,35.47
2018-04-16T08:47:54.803Z,36.13
2018-04-16T08:48:57.281Z,34.70
2018-04-16T08:49:59.773Z,76.18
2018-04-16T08:51:02.254Z,58.15
2018-04-16T08:52:04.749Z,108.15
2018-04-16T08:53:07.983Z,121.85
2018-04-16T08:54:11.883Z,77.25
2018-04-16T08:55:14.469Z,40.75
2018-04-16T08:56:17.696Z,38.35
2018-04-16T08:57:20.961Z,37.00
2018-04-16T08:58:24.181Z,36.17
2018-04-16T08:59:27.438Z,51.83
2018-04-16T09:00:30.706Z,66.25
2018-04-16T09:01:33.193Z,55.72
2018-04-16T09:02:36.464Z,60.53
2018-04-16T09:03:38.968Z,74.32
2018-04-16T09:04:42.226Z,70.60
2018-04-16T09:05:44.765Z,47.13
2018-04-16T09:06:47.277Z,39.97
2018-04-16T09:07:50.555Z,48.08
2018-04-16T09:08:53.026Z,62.88
2018-04-16T09:09:56.269Z,44.45
2018-04-16T09:10:59.548Z,49.03
2018-04-16T09:12:02.156Z,39.97
2018-04-16T09:13:04.704Z,39.58
2018-04-16T09:14:07.190Z,39.22
2018-04-16T09:15:09.671Z,38.90
2018-04-16T09:16:12.141Z,49.40
2018-04-16T09:17:15.384Z,41.00
2018-04-16T09:18:17.839Z,41.05
2018-04-16T09:19:20.313Z,46.05
2018-04-16T09:20:22.840Z,39.38
2018-04-16T09:21:25.439Z,38.72
2018-04-16T09:22:27.921Z,39.38
2018-04-16T09:23:31.148Z,38.88
2018-04-16T09:24:34.415Z,37.35
2018-04-16T09:25:36.984Z,39.92
2018-04-16T09:26:39.772Z,39.42
2018-04-16T09:27:42.235Z,45.60
2018-04-16T09:28:44.705Z,36.53
2018-04-16T09:29:47.994Z,36.08
2018-04-16T09:30:50.473Z,36.65
2018-04-16T09:31:53.733Z,41.63
2018-04-16T09:32:56.985Z,37.25
2018-04-16T09:34:00.205Z,39.35
2018-04-16T09:35:03.573Z,40.38
2018-04-16T09:36:06.073Z,41.05
2018-04-16T09:37:09.314Z,38.83
2018-04-16T09:38:12.602Z,37.60
2018-04-16T09:39:15.082Z,37.80
2018-04-16T09:40:18.457Z,36.80
2018-04-16T09:41:20.938Z,38.38
2018-04-16T09:42:23.413Z,39.15
2018-04-16T09:43:25.883Z,38.22
2018-04-16T09:44:28.363Z,37.75
2018-04-16T09:45:30.872Z,36.33
2018-04-16T09:46:33.394Z,36.42
2018-04-16T09:47:35.922Z,37.47
2018-04-16T09:48:38.449Z,36.08
2018-04-16T09:49:40.923Z,37.65
2018-04-16T09:50:43.504Z,34.42
2018-04-16T09:51:45.986Z,33.33
2018-04-16T09:52:48.561Z,34.17
2018-04-16T09:53:51.059Z,35.63
2018-04-16T09:54:54.314Z,34.90
2018-04-16T09:55:57.569Z,35.20
2018-04-16T09:57:00.076Z,34.65
2018-04-16T09:58:03.378Z,34.17
2018-04-16T09:59:05.884Z,33.45
2018-04-16T10:00:08.336Z,33.20
2018-04-16T10:01:16.571Z,32.85
2018-04-16T10:02:24.942Z,34.70
2018-04-16T10:03:27.462Z,32.58
2018-04-16T10:04:29.925Z,34.25
2018-04-16T10:05:33.193Z,32.47
2018-04-16T10:06:35.734Z,31.65
2018-04-16T10:07:38.243Z,33.33
2018-04-16T10:08:40.786Z,33.25
2018-04-16T10:09:43.292Z,33.72
2018-04-16T10:10:45.778Z,32.95
2018-04-16T10:12:56.798Z,33.95
2018-04-16T10:14:00.059Z,31.35
2018-04-16T10:15:02.557Z,31.83
2018-04-16T10:16:05.852Z,31.67
2018-04-16T10:17:08.344Z,31.33
2018-04-16T10:18:10.847Z,31.77
2018-04-16T10:19:13.332Z,31.23
2018-04-16T10:20:15.812Z,30.58
2018-04-16T10:21:19.069Z,31.17
2018-04-16T10:22:22.015Z,30.48
2018-04-16T10:23:24.918Z,30.67
2018-04-16T10:24:27.613Z,30.95
2018-04-16T10:25:30.115Z,31.45
2018-04-16T10:26:32.720Z,31.42
2018-04-16T10:27:35.190Z,30.80
2018-04-16T10:28:37.711Z,31.05
2018-04-16T10:29:40.238Z,28.52
2018-04-16T10:30:42.718Z,31.00
2018-04-16T10:31:45.205Z,31.87
2018-04-16T10:32:47.687Z,32.20
2018-04-16T10:33:50.146Z,30.00
2018-04-16T10:34:53.007Z,31.17
2018-04-16T10:35:56.803Z,31.25
2018-04-16T10:36:59.271Z,29.00
2018-04-16T10:38:01.756Z,30.75
2018-04-16T10:39:04.256Z,29.98
2018-04-16T10:40:06.723Z,29.40
2018-04-16T10:41:09.248Z,28.73
2018-04-16T10:42:11.732Z,29.65
2018-04-16T10:43:14.769Z,28.55
2018-04-16T10:44:17.271Z,29.67
2018-04-16T10:45:19.818Z,28.90
2018-04-16T10:46:22.273Z,28.75
2018-04-16T10:47:24.775Z,29.25
2018-04-16T10:48:27.254Z,28.85
2018-04-16T10:49:29.720Z,29.10
2018-04-16T10:50:32.214Z,27.92
2018-04-16T10:51:34.866Z,28.90
2018-04-16T10:52:37.362Z,29.30
2018-04-16T10:53:39.845Z,28.15
2018-04-16T10:54:43.086Z,28.62
2018-04-16T10:55:45.551Z,27.87
2018-04-16T10:56:48.040Z,25.90
2018-04-16T10:57:50.547Z,27.65
2018-04-16T10:58:53.048Z,27.08
2018-04-16T10:59:56.307Z,27.70
2018-04-16T11:00:59.520Z,27.65
2018-04-16T11:02:02.068Z,27.50
2018-04-16T11:03:05.357Z,28.75
2018-04-16T11:04:07.864Z,27.95
2018-04-16T11:05:10.328Z,26.62
2018-04-16T11:06:12.840Z,26.62
2018-04-16T11:07:15.316Z,27.42
2018-04-16T11:08:18.540Z,26.65
2018-04-16T11:09:21.796Z,25.40
2018-04-16T11:10:24.273Z,25.70
2018-04-16T11:11:26.723Z,25.02
2018-04-16T11:12:29.965Z,24.73
2018-04-16T11:13:33.237Z,23.62
2018-04-16T11:14:35.712Z,24.65
2018-04-16T11:15:38.197Z,24.63
2018-04-16T11:16:40.670Z,24.42
2018-04-16T11:17:43.181Z,26.12
2018-04-16T11:18:45.644Z,26.55
2018-04-16T11:19:48.923Z,25.70
2018-04-16T11:20:51.481Z,25.23
2018-04-16T11:21:54.449Z,24.65
2018-04-16T11:22:57.687Z,25.33
2018-04-16T11:24:00.961Z,25.30
2018-04-16T11:25:03.475Z,25.25
2018-04-16T11:26:05.972Z,25.17
2018-04-16T11:27:08.516Z,24.10
2018-04-16T11:28:11.747Z,26.42
2018-04-16T11:29:14.984Z,27.10
2018-04-16T11:30:17.448Z,26.77
2018-04-16T11:31:19.979Z,25.60
2018-04-16T11:32:22.520Z,26.15
2018-04-16T11:33:25.802Z,26.58
2018-04-16T11:34:28.271Z,25.10
2018-04-16T11:35:30.786Z,23.77
2018-04-16T11:36:33.244Z,24.23
2018-04-16T11:37:36.477Z,23.62
2018-04-16T11:38:38.971Z,24.70
2018-04-16T11:39:42.377Z,25.10
2018-04-16T11:40:44.926Z,24.40
2018-04-16T11:41:48.176Z,23.70
2018-04-16T11:42:51.432Z,23.50
2018-04-16T11:43:53.979Z,22.73
2018-04-16T11:44:56.464Z,22.42
2018-04-16T11:45:59.705Z,23.73
2018-04-16T11:47:02.980Z,23.87
2018-04-16T11:48:05.470Z,21.27
2018-04-16T11:49:07.990Z,22.50
2018-04-16T11:50:10.519Z,23.50
2018-04-16T11:51:13.018Z,22.02
2018-04-16T11:52:15.537Z,21.55
2018-04-16T11:53:17.997Z,21.30
2018-04-16T11:54:21.275Z,21.15
2018-04-16T11:55:23.745Z,22.05
2018-04-16T11:56:26.317Z,20.65
2018-04-16T11:57:28.890Z,20.95
2018-04-16T11:58:31.370Z,20.70
2018-04-16T11:59:33.829Z,21.45
2018-04-16T12:00:36.337Z,21.15
2018-04-16T12:01:38.873Z,20.30
2018-04-16T12:02:41.371Z,20.35
2018-04-16T12:03:43.842Z,20.77
2018-04-16T12:04:46.298Z,20.40
2018-04-16T12:05:49.537Z,20.98
2018-04-16T12:06:52.783Z,22.10
2018-04-16T12:07:56.137Z,20.08
2018-04-16T12:08:59.509Z,19.33
2018-04-16T12:10:02.758Z,20.30
2018-04-16T12:11:05.229Z,21.45
2018-04-16T12:12:07.811Z,21.17
2018-04-16T12:13:10.287Z,20.20
2018-04-16T12:14:13.541Z,20.40
2018-04-16T12:15:16.792Z,22.10
2018-04-16T12:16:19.275Z,20.10
2018-04-16T12:17:21.729Z,19.70
2018-04-16T12:18:24.999Z,18.98
2018-04-16T12:19:27.497Z,19.50
2018-04-16T12:20:30.010Z,19.25
2018-04-16T12:21:32.513Z,21.90
2018-04-16T12:22:35.007Z,19.45
2018-04-16T12:23:37.548Z,19.27
2018-04-16T12:24:40.026Z,21.10
2018-04-16T12:25:43.300Z,20.62
2018-04-16T12:26:45.807Z,20.37
2018-04-16T12:27:49.091Z,20.48
2018-04-16T12:28:51.594Z,19.42
2018-04-16T12:29:54.083Z,19.77
2018-04-16T12:30:57.362Z,20.12
2018-04-16T12:32:00.416Z,21.10
2018-04-16T12:33:02.933Z,20.15
2018-04-16T12:34:06.133Z,18.42
2018-04-16T12:35:09.510Z,18.60
2018-04-16T12:36:13.665Z,20.02
2018-04-16T12:37:16.234Z,19.67
2018-04-16T12:38:18.788Z,21.00
2018-04-16T12:39:21.979Z,19.90
2018-04-16T12:40:24.461Z,22.20
2018-04-16T12:41:27.727Z,20.65
2018-04-16T12:42:30.264Z,19.02
2018-04-16T12:43:32.743Z,18.98
2018-04-16T12:44:35.209Z,19.90
2018-04-16T12:45:37.719Z,18.80
2018-04-16T12:46:40.258Z,19.77
2018-04-16T12:47:42.734Z,19.60
2018-04-16T12:48:45.237Z,19.48
2018-04-16T12:49:47.732Z,20.80
2018-04-16T12:50:50.272Z,18.52
2018-04-16T12:51:52.785Z,19.62
2018-04-16T12:52:55.252Z,19.83
2018-04-16T12:53:57.818Z,19.58
2018-04-16T12:55:01.082Z,19.77
2018-04-16T12:56:03.599Z,18.90
2018-04-16T12:57:06.099Z,18.25
2018-04-16T12:58:08.580Z,18.58
2018-04-16T12:59:11.131Z,18.58
2018-04-16T13:00:13.610Z,18.37
2018-04-16T13:01:16.839Z,18.75
2018-04-16T13:02:19.334Z,18.00
2018-04-16T13:03:21.898Z,19.15
2018-04-16T13:04:24.396Z,19.08
2018-04-16T13:05:26.993Z,18.83
2018-04-16T13:06:29.464Z,18.15
2018-04-16T13:07:32.719Z,17.87
2018-04-16T13:08:35.213Z,20.02
2018-04-16T13:09:37.704Z,19.30
2018-04-16T13:10:40.630Z,18.70
2018-04-16T13:11:43.233Z,19.52
2018-04-16T13:12:45.712Z,19.52
2018-04-16T13:13:48.183Z,20.70
2018-04-16T13:14:50.666Z,20.15
2018-04-16T13:15:53.233Z,18.60
2018-04-16T13:16:55.739Z,18.65
2018-04-16T13:17:58.993Z,18.85
2018-04-16T13:19:01.444Z,20.30
2018-04-16T13:20:03.974Z,19.58
2018-04-16T13:21:06.475Z,18.75
2018-04-16T13:22:08.953Z,19.25
2018-04-16T13:23:11.418Z,18.70
2018-04-16T13:24:13.890Z,20.12
2018-04-16T13:25:16.574Z,21.45
2018-04-16T13:26:19.083Z,21.02
2018-04-16T13:27:22.356Z,19.70
2018-04-16T13:28:24.888Z,21.70
2018-04-16T13:29:27.394Z,19.80
2018-04-16T13:30:29.884Z,21.73
2018-04-16T13:31:32.458Z,20.80
2018-04-16T13:32:34.923Z,22.48
2018-04-16T13:33:37.402Z,20.55
2018-04-16T13:34:39.877Z,19.33
2018-04-16T13:35:42.375Z,20.27
2018-04-16T13:36:44.861Z,19.37
2018-04-16T13:37:48.100Z,22.62
2018-04-16T13:38:51.367Z,20.30
2018-04-16T13:39:53.889Z,20.37
2018-04-16T13:40:56.400Z,20.88
2018-04-16T13:41:59.653Z,19.83
2018-04-16T13:43:02.148Z,19.80
2018-04-16T13:44:04.609Z,21.15
2018-04-16T13:45:07.101Z,20.92
2018-04-16T13:46:10.008Z,22.45
2018-04-16T13:47:13.209Z,20.45
2018-04-16T13:48:15.744Z,19.25
2018-04-16T13:49:18.355Z,20.23
2018-04-16T13:50:20.826Z,19.75
2018-04-16T13:51:23.285Z,19.75
2018-04-16T13:52:26.644Z,20.48
2018-04-16T13:53:29.105Z,18.95
2018-04-16T13:54:31.580Z,18.45
2018-04-16T13:55:34.836Z,17.08
2018-04-16T13:56:37.309Z,17.25